Terminal Aerodrome Forecast
Issued by NWS

Home | Current Version | Previous Version | Text Only | Print | Product List | Glossary On
Versions: 1 2 3 4 5 6 7 8 9 10 11 12 13 14
000
FTUS43 KIWX 062320
TAFSBN
TAF
KSBN 062320Z 0700/0724 19012KT P6SM SCT040 BKN150
      TEMPO 0700/0702 5SM SHRA BR BKN040
     FM070500 21009KT 5SM -SHRA BR BKN025
     FM070800 23009KT 3SM -SHRA BR OVC010
     FM071400 33010KT P6SM BKN025
     FM071800 33012G18KT P6SM BKN035=

USA.gov is the U.S. government's official web portal to all federal, state and local government web resources and services.